sensor_id;sensor_type;location;lat;lon;timestamp;P1;durP1;ratioP1;P2;durP2;ratioP2
35442;SDS011;21561;55.654;37.592;2023-06-14T00:02:07;17.02;;;4.70;;
35442;SDS011;21561;55.654;37.592;2023-06-14T00:04:35;20.05;;;4.90;;
35442;SDS011;21561;55.654;37.592;2023-06-14T00:07:03;16.35;;;5.30;;
35442;SDS011;21561;55.654;37.592;2023-06-14T00:09:30;17.55;;;5.53;;
35442;SDS011;21561;55.654;37.592;2023-06-14T00:11:56;22.58;;;6.00;;
35442;SDS011;21561;55.654;37.592;2023-06-14T00:14:23;19.00;;;6.68;;
35442;SDS011;21561;55.654;37.592;2023-06-14T00:16:50;19.17;;;5.90;;
35442;SDS011;21561;55.654;37.592;2023-06-14T00:19:19;17.52;;;5.18;;
35442;SDS011;21561;55.654;37.592;2023-06-14T00:21:47;14.73;;;4.78;;
35442;SDS011;21561;55.654;37.592;2023-06-14T00:24:15;19.20;;;5.22;;
35442;SDS011;21561;55.654;37.592;2023-06-14T00:26:42;18.80;;;5.10;;
35442;SDS011;21561;55.654;37.592;2023-06-14T00:29:08;16.85;;;5.07;;
35442;SDS011;21561;55.654;37.592;2023-06-14T00:31:35;18.95;;;5.07;;
35442;SDS011;21561;55.654;37.592;2023-06-14T00:34:02;17.13;;;5.25;;
35442;SDS011;21561;55.654;37.592;2023-06-14T00:36:29;20.90;;;5.60;;
35442;SDS011;21561;55.654;37.592;2023-06-14T00:38:56;19.33;;;5.40;;
35442;SDS011;21561;55.654;37.592;2023-06-14T00:41:22;16.88;;;5.20;;
35442;SDS011;21561;55.654;37.592;2023-06-14T00:43:50;18.35;;;5.32;;
35442;SDS011;21561;55.654;37.592;2023-06-14T00:46:17;18.27;;;5.30;;
35442;SDS011;21561;55.654;37.592;2023-06-14T00:48:45;18.50;;;4.90;;
35442;SDS011;21561;55.654;37.592;2023-06-14T00:51:13;17.80;;;5.15;;
35442;SDS011;21561;55.654;37.592;2023-06-14T00:53:41;16.13;;;5.18;;
35442;SDS011;21561;55.654;37.592;2023-06-14T00:56:13;17.88;;;5.25;;
35442;SDS011;21561;55.654;37.592;2023-06-14T00:58:41;18.30;;;6.22;;
35442;SDS011;21561;55.654;37.592;2023-06-14T01:01:09;21.45;;;5.20;;
35442;SDS011;21561;55.654;37.592;2023-06-14T01:03:36;19.13;;;5.20;;
35442;SDS011;21561;55.654;37.592;2023-06-14T01:09:11;18.30;;;5.35;;
35442;SDS011;21561;55.654;37.592;2023-06-14T01:11:59;19.20;;;5.20;;
35442;SDS011;21561;55.654;37.592;2023-06-14T01:14:33;19.23;;;5.35;;
35442;SDS011;21561;55.654;37.592;2023-06-14T01:17:02;18.13;;;5.20;;
35442;SDS011;21561;55.654;37.592;2023-06-14T01:19:29;18.23;;;5.85;;
35442;SDS011;21561;55.654;37.592;2023-06-14T01:21:58;19.77;;;5.28;;
35442;SDS011;21561;55.654;37.592;2023-06-14T01:24:27;18.65;;;5.45;;
35442;SDS011;21561;55.654;37.592;2023-06-14T01:26:58;16.88;;;5.30;;
35442;SDS011;21561;55.654;37.592;2023-06-14T01:29:26;19.75;;;5.43;;
35442;SDS011;21561;55.654;37.592;2023-06-14T01:31:59;19.38;;;4.93;;
35442;SDS011;21561;55.654;37.592;2023-06-14T01:34:27;25.92;;;5.70;;
35442;SDS011;21561;55.654;37.592;2023-06-14T01:36:54;20.50;;;5.72;;
35442;SDS011;21561;55.654;37.592;2023-06-14T01:39:21;16.23;;;5.18;;
35442;SDS011;21561;55.654;37.592;2023-06-14T01:41:49;17.55;;;5.65;;
35442;SDS011;21561;55.654;37.592;2023-06-14T01:44:18;16.88;;;4.80;;
35442;SDS011;21561;55.654;37.592;2023-06-14T01:46:46;16.58;;;5.25;;
35442;SDS011;21561;55.654;37.592;2023-06-14T01:49:14;16.88;;;5.57;;
35442;SDS011;21561;55.654;37.592;2023-06-14T01:51:41;16.33;;;5.18;;
35442;SDS011;21561;55.654;37.592;2023-06-14T01:54:08;17.92;;;5.32;;
35442;SDS011;21561;55.654;37.592;2023-06-14T01:56:34;19.15;;;5.38;;
35442;SDS011;21561;55.654;37.592;2023-06-14T01:59:01;17.85;;;5.18;;
35442;SDS011;21561;55.654;37.592;2023-06-14T02:01:28;17.10;;;5.57;;
35442;SDS011;21561;55.654;37.592;2023-06-14T02:03:55;15.25;;;5.30;;
35442;SDS011;21561;55.654;37.592;2023-06-14T02:06:22;18.63;;;5.38;;
35442;SDS011;21561;55.654;37.592;2023-06-14T02:08:50;20.10;;;5.45;;
35442;SDS011;21561;55.654;37.592;2023-06-14T02:11:17;19.02;;;5.63;;
35442;SDS011;21561;55.654;37.592;2023-06-14T02:13:44;19.15;;;5.35;;
35442;SDS011;21561;55.654;37.592;2023-06-14T02:16:12;16.83;;;4.88;;
35442;SDS011;21561;55.654;37.592;2023-06-14T02:18:39;20.08;;;5.25;;
35442;SDS011;21561;55.654;37.592;2023-06-14T02:21:05;17.73;;;5.45;;
35442;SDS011;21561;55.654;37.592;2023-06-14T02:23:32;18.88;;;6.30;;
35442;SDS011;21561;55.654;37.592;2023-06-14T02:26:01;21.13;;;6.10;;
35442;SDS011;21561;55.654;37.592;2023-06-14T02:28:29;16.85;;;5.43;;
35442;SDS011;21561;55.654;37.592;2023-06-14T02:30:56;16.17;;;5.60;;
35442;SDS011;21561;55.654;37.592;2023-06-14T02:33:23;18.85;;;5.55;;
35442;SDS011;21561;55.654;37.592;2023-06-14T02:35:51;18.60;;;5.65;;
35442;SDS011;21561;55.654;37.592;2023-06-14T02:38:19;19.67;;;5.93;;
35442;SDS011;21561;55.654;37.592;2023-06-14T02:40:46;17.38;;;5.78;;
35442;SDS011;21561;55.654;37.592;2023-06-14T02:43:13;20.88;;;5.97;;
35442;SDS011;21561;55.654;37.592;2023-06-14T02:45:40;22.98;;;6.40;;
35442;SDS011;21561;55.654;37.592;2023-06-14T02:48:07;19.15;;;6.60;;
35442;SDS011;21561;55.654;37.592;2023-06-14T02:50:34;20.48;;;6.82;;
35442;SDS011;21561;55.654;37.592;2023-06-14T02:53:01;19.75;;;5.80;;
35442;SDS011;21561;55.654;37.592;2023-06-14T02:55:29;20.38;;;6.10;;
35442;SDS011;21561;55.654;37.592;2023-06-14T02:57:56;19.17;;;6.72;;
35442;SDS011;21561;55.654;37.592;2023-06-14T03:00:22;19.92;;;5.85;;
35442;SDS011;21561;55.654;37.592;2023-06-14T03:02:49;27.35;;;6.32;;
35442;SDS011;21561;55.654;37.592;2023-06-14T03:05:18;22.67;;;6.68;;
35442;SDS011;21561;55.654;37.592;2023-06-14T03:07:48;23.38;;;5.95;;
35442;SDS011;21561;55.654;37.592;2023-06-14T03:10:16;22.95;;;6.30;;
35442;SDS011;21561;55.654;37.592;2023-06-14T03:12:45;22.38;;;6.90;;
35442;SDS011;21561;55.654;37.592;2023-06-14T03:15:12;21.95;;;6.65;;
35442;SDS011;21561;55.654;37.592;2023-06-14T03:17:39;18.35;;;6.00;;
35442;SDS011;21561;55.654;37.592;2023-06-14T03:20:12;22.17;;;6.57;;
35442;SDS011;21561;55.654;37.592;2023-06-14T03:22:39;21.35;;;7.22;;
35442;SDS011;21561;55.654;37.592;2023-06-14T03:25:07;21.80;;;7.45;;
35442;SDS011;21561;55.654;37.592;2023-06-14T03:27:35;25.65;;;7.47;;
35442;SDS011;21561;55.654;37.592;2023-06-14T03:30:02;28.13;;;6.88;;
35442;SDS011;21561;55.654;37.592;2023-06-14T03:32:30;24.25;;;6.45;;
35442;SDS011;21561;55.654;37.592;2023-06-14T03:34:59;24.27;;;6.95;;
35442;SDS011;21561;55.654;37.592;2023-06-14T03:37:26;24.90;;;7.57;;
35442;SDS011;21561;55.654;37.592;2023-06-14T03:39:53;21.33;;;7.75;;
35442;SDS011;21561;55.654;37.592;2023-06-14T03:42:20;20.63;;;6.95;;
35442;SDS011;21561;55.654;37.592;2023-06-14T03:44:47;22.73;;;7.72;;
35442;SDS011;21561;55.654;37.592;2023-06-14T03:47:14;23.13;;;7.55;;
35442;SDS011;21561;55.654;37.592;2023-06-14T03:49:41;22.33;;;6.57;;
35442;SDS011;21561;55.654;37.592;2023-06-14T03:52:08;20.73;;;7.22;;
35442;SDS011;21561;55.654;37.592;2023-06-14T03:54:35;28.85;;;6.85;;
35442;SDS011;21561;55.654;37.592;2023-06-14T03:57:04;23.25;;;7.07;;
35442;SDS011;21561;55.654;37.592;2023-06-14T03:59:32;23.30;;;7.95;;
35442;SDS011;21561;55.654;37.592;2023-06-14T04:01:59;21.90;;;6.78;;
35442;SDS011;21561;55.654;37.592;2023-06-14T04:04:26;24.35;;;6.65;;
35442;SDS011;21561;55.654;37.592;2023-06-14T04:06:56;24.38;;;7.60;;
35442;SDS011;21561;55.654;37.592;2023-06-14T04:09:24;22.10;;;7.13;;
35442;SDS011;21561;55.654;37.592;2023-06-14T04:11:51;23.55;;;7.45;;
35442;SDS011;21561;55.654;37.592;2023-06-14T04:14:19;23.02;;;7.07;;
35442;SDS011;21561;55.654;37.592;2023-06-14T04:16:47;25.35;;;7.13;;
35442;SDS011;21561;55.654;37.592;2023-06-14T04:19:15;22.65;;;6.97;;
35442;SDS011;21561;55.654;37.592;2023-06-14T04:21:42;23.10;;;6.90;;
35442;SDS011;21561;55.654;37.592;2023-06-14T04:24:09;23.15;;;6.38;;
35442;SDS011;21561;55.654;37.592;2023-06-14T04:26:43;25.02;;;6.97;;
35442;SDS011;21561;55.654;37.592;2023-06-14T04:29:18;21.85;;;6.70;;
35442;SDS011;21561;55.654;37.592;2023-06-14T04:31:46;21.08;;;6.80;;
35442;SDS011;21561;55.654;37.592;2023-06-14T04:34:13;21.08;;;6.47;;
35442;SDS011;21561;55.654;37.592;2023-06-14T04:36:43;21.50;;;6.10;;
35442;SDS011;21561;55.654;37.592;2023-06-14T04:39:16;20.13;;;5.97;;
35442;SDS011;21561;55.654;37.592;2023-06-14T04:41:45;19.13;;;5.22;;
35442;SDS011;21561;55.654;37.592;2023-06-14T04:44:13;18.73;;;5.63;;
35442;SDS011;21561;55.654;37.592;2023-06-14T04:46:40;21.10;;;6.28;;
35442;SDS011;21561;55.654;37.592;2023-06-14T04:49:13;22.20;;;5.90;;
35442;SDS011;21561;55.654;37.592;2023-06-14T04:51:41;18.45;;;6.32;;
35442;SDS011;21561;55.654;37.592;2023-06-14T04:54:09;19.20;;;5.90;;
35442;SDS011;21561;55.654;37.592;2023-06-14T04:56:40;25.15;;;6.38;;
35442;SDS011;21561;55.654;37.592;2023-06-14T04:59:08;21.77;;;6.15;;
35442;SDS011;21561;55.654;37.592;2023-06-14T05:01:38;21.00;;;6.47;;
35442;SDS011;21561;55.654;37.592;2023-06-14T05:04:05;18.63;;;5.63;;
35442;SDS011;21561;55.654;37.592;2023-06-14T05:06:32;22.23;;;6.93;;
35442;SDS011;21561;55.654;37.592;2023-06-14T05:08:58;17.75;;;5.97;;
35442;SDS011;21561;55.654;37.592;2023-06-14T05:11:25;25.00;;;6.53;;
35442;SDS011;21561;55.654;37.592;2023-06-14T05:13:53;25.85;;;6.47;;
35442;SDS011;21561;55.654;37.592;2023-06-14T05:16:21;22.77;;;5.95;;
35442;SDS011;21561;55.654;37.592;2023-06-14T05:18:49;23.58;;;6.85;;
35442;SDS011;21561;55.654;37.592;2023-06-14T05:21:17;20.88;;;6.60;;
35442;SDS011;21561;55.654;37.592;2023-06-14T05:23:45;24.63;;;7.40;;
35442;SDS011;21561;55.654;37.592;2023-06-14T05:26:12;24.33;;;6.32;;
35442;SDS011;21561;55.654;37.592;2023-06-14T05:28:39;24.70;;;6.05;;
35442;SDS011;21561;55.654;37.592;2023-06-14T05:31:06;21.63;;;7.40;;
35442;SDS011;21561;55.654;37.592;2023-06-14T05:33:33;20.23;;;5.88;;
35442;SDS011;21561;55.654;37.592;2023-06-14T05:36:00;20.58;;;5.75;;
35442;SDS011;21561;55.654;37.592;2023-06-14T05:38:26;17.67;;;5.38;;
35442;SDS011;21561;55.654;37.592;2023-06-14T05:40:53;15.75;;;4.65;;
35442;SDS011;21561;55.654;37.592;2023-06-14T05:43:20;21.48;;;5.20;;
35442;SDS011;21561;55.654;37.592;2023-06-14T05:45:47;23.70;;;5.63;;
35442;SDS011;21561;55.654;37.592;2023-06-14T05:48:14;21.70;;;5.40;;
35442;SDS011;21561;55.654;37.592;2023-06-14T05:50:41;16.48;;;4.60;;
35442;SDS011;21561;55.654;37.592;2023-06-14T05:53:08;17.17;;;4.40;;
35442;SDS011;21561;55.654;37.592;2023-06-14T05:55:35;20.52;;;4.80;;
35442;SDS011;21561;55.654;37.592;2023-06-14T05:58:03;18.05;;;4.85;;
35442;SDS011;21561;55.654;37.592;2023-06-14T06:00:30;19.55;;;4.43;;
35442;SDS011;21561;55.654;37.592;2023-06-14T06:02:57;19.15;;;4.07;;
35442;SDS011;21561;55.654;37.592;2023-06-14T06:05:24;16.90;;;3.97;;
35442;SDS011;21561;55.654;37.592;2023-06-14T06:07:51;28.38;;;5.38;;
35442;SDS011;21561;55.654;37.592;2023-06-14T06:10:18;18.40;;;4.10;;
35442;SDS011;21561;55.654;37.592;2023-06-14T06:12:45;19.10;;;4.25;;
35442;SDS011;21561;55.654;37.592;2023-06-14T06:15:13;15.43;;;3.65;;
35442;SDS011;21561;55.654;37.592;2023-06-14T06:17:41;39.90;;;6.18;;
35442;SDS011;21561;55.654;37.592;2023-06-14T06:20:21;30.33;;;4.30;;
35442;SDS011;21561;55.654;37.592;2023-06-14T06:22:55;17.90;;;4.38;;
35442;SDS011;21561;55.654;37.592;2023-06-14T06:25:22;16.90;;;3.78;;
35442;SDS011;21561;55.654;37.592;2023-06-14T06:27:49;14.55;;;3.42;;
35442;SDS011;21561;55.654;37.592;2023-06-14T06:30:16;17.00;;;3.30;;
35442;SDS011;21561;55.654;37.592;2023-06-14T06:32:43;18.45;;;3.38;;
35442;SDS011;21561;55.654;37.592;2023-06-14T06:35:10;14.30;;;3.47;;
35442;SDS011;21561;55.654;37.592;2023-06-14T06:37:41;25.40;;;4.32;;
35442;SDS011;21561;55.654;37.592;2023-06-14T06:40:08;14.30;;;3.40;;
35442;SDS011;21561;55.654;37.592;2023-06-14T06:42:36;12.52;;;3.30;;
35442;SDS011;21561;55.654;37.592;2023-06-14T06:45:03;14.65;;;3.40;;
35442;SDS011;21561;55.654;37.592;2023-06-14T06:47:31;16.17;;;3.10;;
35442;SDS011;21561;55.654;37.592;2023-06-14T06:49:58;11.40;;;2.90;;
35442;SDS011;21561;55.654;37.592;2023-06-14T06:52:25;11.05;;;3.08;;
35442;SDS011;21561;55.654;37.592;2023-06-14T06:54:52;9.73;;;2.83;;
35442;SDS011;21561;55.654;37.592;2023-06-14T06:57:21;13.60;;;3.50;;
35442;SDS011;21561;55.654;37.592;2023-06-14T06:59:51;14.60;;;3.05;;
35442;SDS011;21561;55.654;37.592;2023-06-14T07:02:18;10.40;;;2.90;;
35442;SDS011;21561;55.654;37.592;2023-06-14T07:04:45;8.88;;;2.80;;
35442;SDS011;21561;55.654;37.592;2023-06-14T07:07:12;37.85;;;3.72;;
35442;SDS011;21561;55.654;37.592;2023-06-14T07:09:38;11.50;;;3.17;;
35442;SDS011;21561;55.654;37.592;2023-06-14T07:12:07;15.65;;;3.65;;
35442;SDS011;21561;55.654;37.592;2023-06-14T07:14:34;11.35;;;3.15;;
35442;SDS011;21561;55.654;37.592;2023-06-14T07:17:01;13.80;;;3.70;;
35442;SDS011;21561;55.654;37.592;2023-06-14T07:19:28;14.20;;;3.40;;
35442;SDS011;21561;55.654;37.592;2023-06-14T07:21:55;13.90;;;3.20;;
35442;SDS011;21561;55.654;37.592;2023-06-14T07:24:21;11.57;;;3.33;;
35442;SDS011;21561;55.654;37.592;2023-06-14T07:26:48;10.18;;;3.33;;
35442;SDS011;21561;55.654;37.592;2023-06-14T07:29:15;11.27;;;3.15;;
35442;SDS011;21561;55.654;37.592;2023-06-14T07:31:43;13.32;;;3.67;;
35442;SDS011;21561;55.654;37.592;2023-06-14T07:34:09;8.75;;;2.85;;
35442;SDS011;21561;55.654;37.592;2023-06-14T07:36:36;11.00;;;3.17;;
35442;SDS011;21561;55.654;37.592;2023-06-14T07:39:04;12.00;;;3.25;;
35442;SDS011;21561;55.654;37.592;2023-06-14T07:41:32;21.98;;;3.90;;
35442;SDS011;21561;55.654;37.592;2023-06-14T07:43:59;11.10;;;2.97;;
35442;SDS011;21561;55.654;37.592;2023-06-14T07:46:26;13.57;;;3.53;;
35442;SDS011;21561;55.654;37.592;2023-06-14T07:48:53;11.00;;;3.60;;
35442;SDS011;21561;55.654;37.592;2023-06-14T07:51:20;9.07;;;3.15;;
35442;SDS011;21561;55.654;37.592;2023-06-14T07:53:48;11.60;;;3.08;;
35442;SDS011;21561;55.654;37.592;2023-06-14T07:56:15;11.43;;;3.30;;
35442;SDS011;21561;55.654;37.592;2023-06-14T07:58:42;11.57;;;3.00;;
35442;SDS011;21561;55.654;37.592;2023-06-14T08:01:09;12.13;;;2.75;;
35442;SDS011;21561;55.654;37.592;2023-06-14T08:03:37;9.98;;;3.15;;
35442;SDS011;21561;55.654;37.592;2023-06-14T08:06:05;11.73;;;3.28;;
35442;SDS011;21561;55.654;37.592;2023-06-14T08:08:33;11.73;;;3.85;;
35442;SDS011;21561;55.654;37.592;2023-06-14T08:10:59;15.25;;;3.75;;
35442;SDS011;21561;55.654;37.592;2023-06-14T08:13:26;22.70;;;3.90;;
35442;SDS011;21561;55.654;37.592;2023-06-14T08:15:53;26.83;;;3.88;;
35442;SDS011;21561;55.654;37.592;2023-06-14T08:18:21;13.57;;;3.40;;
35442;SDS011;21561;55.654;37.592;2023-06-14T08:20:48;8.90;;;3.25;;
35442;SDS011;21561;55.654;37.592;2023-06-14T08:23:16;12.35;;;3.40;;
35442;SDS011;21561;55.654;37.592;2023-06-14T08:25:45;11.48;;;3.15;;
35442;SDS011;21561;55.654;37.592;2023-06-14T08:28:12;13.57;;;3.17;;
35442;SDS011;21561;55.654;37.592;2023-06-14T08:30:39;16.17;;;4.15;;
35442;SDS011;21561;55.654;37.592;2023-06-14T08:33:05;12.60;;;3.28;;
35442;SDS011;21561;55.654;37.592;2023-06-14T08:35:42;12.55;;;3.30;;
35442;SDS011;21561;55.654;37.592;2023-06-14T08:38:10;11.95;;;3.30;;
35442;SDS011;21561;55.654;37.592;2023-06-14T08:40:38;11.75;;;3.15;;
35442;SDS011;21561;55.654;37.592;2023-06-14T08:43:08;11.35;;;3.30;;
35442;SDS011;21561;55.654;37.592;2023-06-14T08:45:35;10.45;;;3.13;;
35442;SDS011;21561;55.654;37.592;2023-06-14T08:48:02;8.85;;;3.30;;
35442;SDS011;21561;55.654;37.592;2023-06-14T08:50:32;15.68;;;4.43;;
35442;SDS011;21561;55.654;37.592;2023-06-14T08:53:03;9.27;;;3.53;;
35442;SDS011;21561;55.654;37.592;2023-06-14T08:55:31;9.95;;;3.30;;
35442;SDS011;21561;55.654;37.592;2023-06-14T08:58:03;53.17;;;6.05;;
35442;SDS011;21561;55.654;37.592;2023-06-14T09:00:32;23.08;;;4.70;;
35442;SDS011;21561;55.654;37.592;2023-06-14T09:03:00;17.15;;;3.70;;
35442;SDS011;21561;55.654;37.592;2023-06-14T09:05:27;16.50;;;4.00;;
35442;SDS011;21561;55.654;37.592;2023-06-14T09:07:55;15.00;;;3.97;;
35442;SDS011;21561;55.654;37.592;2023-06-14T09:10:31;12.52;;;3.40;;
35442;SDS011;21561;55.654;37.592;2023-06-14T09:13:04;12.25;;;3.58;;
35442;SDS011;21561;55.654;37.592;2023-06-14T09:15:32;13.40;;;3.83;;
35442;SDS011;21561;55.654;37.592;2023-06-14T09:18:00;13.27;;;3.85;;
35442;SDS011;21561;55.654;37.592;2023-06-14T09:20:30;16.00;;;3.70;;
35442;SDS011;21561;55.654;37.592;2023-06-14T09:22:57;12.00;;;3.45;;
35442;SDS011;21561;55.654;37.592;2023-06-14T09:25:24;10.60;;;3.40;;
35442;SDS011;21561;55.654;37.592;2023-06-14T09:28:09;11.23;;;3.57;;
35442;SDS011;21561;55.654;37.592;2023-06-14T09:30:37;16.05;;;3.67;;
35442;SDS011;21561;55.654;37.592;2023-06-14T09:33:04;10.95;;;3.53;;
35442;SDS011;21561;55.654;37.592;2023-06-14T09:35:32;9.02;;;3.40;;
35442;SDS011;21561;55.654;37.592;2023-06-14T09:37:59;11.88;;;3.28;;
35442;SDS011;21561;55.654;37.592;2023-06-14T09:40:26;16.50;;;3.80;;
35442;SDS011;21561;55.654;37.592;2023-06-14T09:42:53;12.75;;;3.80;;
35442;SDS011;21561;55.654;37.592;2023-06-14T09:45:25;19.30;;;4.35;;
35442;SDS011;21561;55.654;37.592;2023-06-14T09:47:56;25.55;;;4.30;;
35442;SDS011;21561;55.654;37.592;2023-06-14T09:50:27;13.70;;;4.15;;
35442;SDS011;21561;55.654;37.592;2023-06-14T09:52:55;11.07;;;3.60;;
35442;SDS011;21561;55.654;37.592;2023-06-14T09:55:31;18.70;;;4.10;;
35442;SDS011;21561;55.654;37.592;2023-06-14T09:58:04;24.52;;;4.60;;
35442;SDS011;21561;55.654;37.592;2023-06-14T10:00:34;26.35;;;4.18;;
35442;SDS011;21561;55.654;37.592;2023-06-14T10:03:11;13.13;;;3.83;;
35442;SDS011;21561;55.654;37.592;2023-06-14T10:05:38;12.25;;;4.13;;
35442;SDS011;21561;55.654;37.592;2023-06-14T10:08:08;13.90;;;4.07;;
35442;SDS011;21561;55.654;37.592;2023-06-14T10:10:38;12.82;;;4.53;;
35442;SDS011;21561;55.654;37.592;2023-06-14T10:13:07;16.30;;;4.53;;
35442;SDS011;21561;55.654;37.592;2023-06-14T10:15:58;15.75;;;4.68;;
35442;SDS011;21561;55.654;37.592;2023-06-14T10:24:38;11.25;;;4.10;;
35442;SDS011;21561;55.654;37.592;2023-06-14T10:27:08;15.50;;;4.68;;
35442;SDS011;21561;55.654;37.592;2023-06-14T10:32:22;11.77;;;4.30;;
35442;SDS011;21561;55.654;37.592;2023-06-14T10:35:06;11.18;;;4.28;;
35442;SDS011;21561;55.654;37.592;2023-06-14T10:37:33;11.40;;;4.55;;
35442;SDS011;21561;55.654;37.592;2023-06-14T10:40:00;15.82;;;5.10;;
35442;SDS011;21561;55.654;37.592;2023-06-14T10:42:32;12.45;;;4.20;;
35442;SDS011;21561;55.654;37.592;2023-06-14T10:44:59;16.88;;;4.72;;
35442;SDS011;21561;55.654;37.592;2023-06-14T10:47:30;11.93;;;4.25;;
35442;SDS011;21561;55.654;37.592;2023-06-14T10:50:06;11.38;;;4.07;;
35442;SDS011;21561;55.654;37.592;2023-06-14T10:52:36;13.63;;;4.60;;
35442;SDS011;21561;55.654;37.592;2023-06-14T10:57:43;12.18;;;4.30;;
35442;SDS011;21561;55.654;37.592;2023-06-14T11:00:23;11.93;;;4.43;;
35442;SDS011;21561;55.654;37.592;2023-06-14T11:05:53;11.45;;;4.20;;
35442;SDS011;21561;55.654;37.592;2023-06-14T11:11:07;12.43;;;4.60;;
35442;SDS011;21561;55.654;37.592;2023-06-14T11:13:39;14.02;;;4.65;;
35442;SDS011;21561;55.654;37.592;2023-06-14T11:16:13;10.77;;;4.10;;
35442;SDS011;21561;55.654;37.592;2023-06-14T11:18:41;11.65;;;4.40;;
35442;SDS011;21561;55.654;37.592;2023-06-14T11:21:10;12.70;;;4.30;;
35442;SDS011;21561;55.654;37.592;2023-06-14T11:23:37;13.48;;;4.07;;
35442;SDS011;21561;55.654;37.592;2023-06-14T11:26:04;11.65;;;4.10;;
35442;SDS011;21561;55.654;37.592;2023-06-14T11:28:40;15.43;;;3.90;;
35442;SDS011;21561;55.654;37.592;2023-06-14T11:31:07;15.85;;;4.35;;
35442;SDS011;21561;55.654;37.592;2023-06-14T11:33:35;13.95;;;4.40;;
35442;SDS011;21561;55.654;37.592;2023-06-14T11:36:03;15.40;;;4.30;;
35442;SDS011;21561;55.654;37.592;2023-06-14T11:38:35;16.00;;;4.93;;
35442;SDS011;21561;55.654;37.592;2023-06-14T11:41:04;12.73;;;3.92;;
35442;SDS011;21561;55.654;37.592;2023-06-14T11:43:31;12.90;;;4.18;;
35442;SDS011;21561;55.654;37.592;2023-06-14T11:46:00;12.38;;;4.60;;
35442;SDS011;21561;55.654;37.592;2023-06-14T11:48:40;10.02;;;4.00;;
35442;SDS011;21561;55.654;37.592;2023-06-14T11:51:09;12.40;;;5.13;;
35442;SDS011;21561;55.654;37.592;2023-06-14T11:53:36;14.85;;;4.47;;
35442;SDS011;21561;55.654;37.592;2023-06-14T11:56:03;12.98;;;4.82;;
35442;SDS011;21561;55.654;37.592;2023-06-14T11:58:30;10.40;;;4.35;;
35442;SDS011;21561;55.654;37.592;2023-06-14T12:00:57;13.98;;;4.82;;
35442;SDS011;21561;55.654;37.592;2023-06-14T12:03:24;16.15;;;4.68;;
35442;SDS011;21561;55.654;37.592;2023-06-14T12:06:06;12.23;;;4.32;;
35442;SDS011;21561;55.654;37.592;2023-06-14T12:08:37;12.70;;;4.45;;
35442;SDS011;21561;55.654;37.592;2023-06-14T12:11:07;14.00;;;4.20;;
35442;SDS011;21561;55.654;37.592;2023-06-14T12:13:38;15.43;;;5.55;;
35442;SDS011;21561;55.654;37.592;2023-06-14T12:16:10;12.57;;;4.43;;
35442;SDS011;21561;55.654;37.592;2023-06-14T12:18:38;13.48;;;4.47;;
35442;SDS011;21561;55.654;37.592;2023-06-14T12:21:07;15.80;;;4.10;;
35442;SDS011;21561;55.654;37.592;2023-06-14T12:23:43;10.38;;;4.40;;
35442;SDS011;21561;55.654;37.592;2023-06-14T12:26:17;17.25;;;4.05;;
35442;SDS011;21561;55.654;37.592;2023-06-14T12:28:46;18.52;;;4.47;;
35442;SDS011;21561;55.654;37.592;2023-06-14T12:31:14;11.38;;;3.95;;
35442;SDS011;21561;55.654;37.592;2023-06-14T12:33:43;18.98;;;4.50;;
35442;SDS011;21561;55.654;37.592;2023-06-14T12:36:12;25.10;;;5.38;;
35442;SDS011;21561;55.654;37.592;2023-06-14T12:38:39;17.92;;;5.28;;
35442;SDS011;21561;55.654;37.592;2023-06-14T12:41:06;28.02;;;5.70;;
35442;SDS011;21561;55.654;37.592;2023-06-14T12:43:34;53.33;;;6.75;;
35442;SDS011;21561;55.654;37.592;2023-06-14T12:46:01;12.00;;;4.13;;
35442;SDS011;21561;55.654;37.592;2023-06-14T12:48:28;10.57;;;4.20;;
35442;SDS011;21561;55.654;37.592;2023-06-14T12:50:57;16.45;;;4.32;;
35442;SDS011;21561;55.654;37.592;2023-06-14T12:53:25;13.05;;;4.28;;
35442;SDS011;21561;55.654;37.592;2023-06-14T12:55:51;13.82;;;4.28;;
35442;SDS011;21561;55.654;37.592;2023-06-14T12:58:18;14.73;;;4.13;;
35442;SDS011;21561;55.654;37.592;2023-06-14T13:00:50;14.98;;;4.15;;
35442;SDS011;21561;55.654;37.592;2023-06-14T13:03:17;16.35;;;4.50;;
35442;SDS011;21561;55.654;37.592;2023-06-14T13:05:44;17.38;;;4.65;;
35442;SDS011;21561;55.654;37.592;2023-06-14T13:08:11;13.27;;;4.38;;
35442;SDS011;21561;55.654;37.592;2023-06-14T13:10:38;13.68;;;4.50;;
35442;SDS011;21561;55.654;37.592;2023-06-14T13:13:05;11.93;;;4.45;;
35442;SDS011;21561;55.654;37.592;2023-06-14T13:15:33;13.02;;;4.35;;
35442;SDS011;21561;55.654;37.592;2023-06-14T13:18:00;10.20;;;4.25;;
35442;SDS011;21561;55.654;37.592;2023-06-14T13:20:28;11.02;;;4.07;;
35442;SDS011;21561;55.654;37.592;2023-06-14T13:22:54;28.98;;;4.88;;
35442;SDS011;21561;55.654;37.592;2023-06-14T13:25:21;18.75;;;4.80;;
35442;SDS011;21561;55.654;37.592;2023-06-14T13:27:48;108.82;;;11.65;;
35442;SDS011;21561;55.654;37.592;2023-06-14T13:30:15;33.63;;;4.97;;
35442;SDS011;21561;55.654;37.592;2023-06-14T13:32:43;12.43;;;4.32;;
35442;SDS011;21561;55.654;37.592;2023-06-14T13:35:11;12.98;;;3.90;;
35442;SDS011;21561;55.654;37.592;2023-06-14T13:37:38;13.70;;;4.30;;
35442;SDS011;21561;55.654;37.592;2023-06-14T13:40:05;18.63;;;4.38;;
35442;SDS011;21561;55.654;37.592;2023-06-14T13:42:33;26.13;;;4.88;;
35442;SDS011;21561;55.654;37.592;2023-06-14T13:45:00;14.32;;;3.97;;
35442;SDS011;21561;55.654;37.592;2023-06-14T13:47:26;10.10;;;4.07;;
35442;SDS011;21561;55.654;37.592;2023-06-14T13:49:53;10.95;;;3.85;;
35442;SDS011;21561;55.654;37.592;2023-06-14T13:52:20;15.50;;;4.15;;
35442;SDS011;21561;55.654;37.592;2023-06-14T13:54:48;13.05;;;4.07;;
35442;SDS011;21561;55.654;37.592;2023-06-14T13:57:15;10.65;;;3.92;;
35442;SDS011;21561;55.654;37.592;2023-06-14T13:59:43;9.13;;;3.95;;
35442;SDS011;21561;55.654;37.592;2023-06-14T14:02:11;13.70;;;4.40;;
35442;SDS011;21561;55.654;37.592;2023-06-14T14:04:38;8.60;;;4.03;;
35442;SDS011;21561;55.654;37.592;2023-06-14T14:07:06;9.82;;;3.60;;
35442;SDS011;21561;55.654;37.592;2023-06-14T14:09:33;12.07;;;4.22;;
35442;SDS011;21561;55.654;37.592;2023-06-14T14:12:01;11.00;;;4.07;;
35442;SDS011;21561;55.654;37.592;2023-06-14T14:14:30;12.88;;;4.30;;
35442;SDS011;21561;55.654;37.592;2023-06-14T14:16:58;11.10;;;4.00;;
35442;SDS011;21561;55.654;37.592;2023-06-14T14:19:25;11.70;;;4.38;;
35442;SDS011;21561;55.654;37.592;2023-06-14T14:21:52;12.93;;;3.72;;
35442;SDS011;21561;55.654;37.592;2023-06-14T14:24:20;11.85;;;4.38;;
35442;SDS011;21561;55.654;37.592;2023-06-14T14:26:47;15.15;;;4.20;;
35442;SDS011;21561;55.654;37.592;2023-06-14T14:29:16;10.68;;;4.05;;
35442;SDS011;21561;55.654;37.592;2023-06-14T14:31:43;14.60;;;3.80;;
35442;SDS011;21561;55.654;37.592;2023-06-14T14:34:10;12.50;;;4.20;;
35442;SDS011;21561;55.654;37.592;2023-06-14T14:36:37;11.98;;;3.83;;
35442;SDS011;21561;55.654;37.592;2023-06-14T14:39:09;10.30;;;3.90;;
35442;SDS011;21561;55.654;37.592;2023-06-14T14:41:36;18.92;;;4.22;;
35442;SDS011;21561;55.654;37.592;2023-06-14T14:44:07;12.95;;;4.20;;
35442;SDS011;21561;55.654;37.592;2023-06-14T14:46:34;14.00;;;4.10;;
35442;SDS011;21561;55.654;37.592;2023-06-14T14:49:01;10.40;;;4.07;;